sensor_id;sensor_type;location;lat;lon;timestamp;P1;durP1;ratioP1;P2;durP2;ratioP2
72601;SDS011;60644;55.858;37.390;2023-03-14T00:02:09;5.00;;;0.95;;
72601;SDS011;60644;55.858;37.390;2023-03-14T00:04:35;3.57;;;0.67;;
72601;SDS011;60644;55.858;37.390;2023-03-14T00:07:02;4.15;;;0.52;;
72601;SDS011;60644;55.858;37.390;2023-03-14T00:09:28;4.90;;;0.55;;
72601;SDS011;60644;55.858;37.390;2023-03-14T00:11:55;3.53;;;0.80;;
72601;SDS011;60644;55.858;37.390;2023-03-14T00:14:21;2.17;;;0.45;;
72601;SDS011;60644;55.858;37.390;2023-03-14T00:16:47;2.17;;;0.60;;
72601;SDS011;60644;55.858;37.390;2023-03-14T00:19:13;3.45;;;0.80;;
72601;SDS011;60644;55.858;37.390;2023-03-14T00:21:39;3.55;;;0.77;;
72601;SDS011;60644;55.858;37.390;2023-03-14T00:24:06;2.80;;;0.60;;
72601;SDS011;60644;55.858;37.390;2023-03-14T00:26:33;3.88;;;0.47;;
72601;SDS011;60644;55.858;37.390;2023-03-14T00:28:59;2.80;;;0.43;;
72601;SDS011;60644;55.858;37.390;2023-03-14T00:31:25;4.70;;;0.57;;
72601;SDS011;60644;55.858;37.390;2023-03-14T00:33:51;3.90;;;0.50;;
72601;SDS011;60644;55.858;37.390;2023-03-14T00:36:18;3.38;;;0.57;;
72601;SDS011;60644;55.858;37.390;2023-03-14T00:38:46;3.97;;;0.50;;
72601;SDS011;60644;55.858;37.390;2023-03-14T00:41:15;2.60;;;0.47;;
72601;SDS011;60644;55.858;37.390;2023-03-14T00:43:42;5.38;;;1.13;;
72601;SDS011;60644;55.858;37.390;2023-03-14T00:46:09;2.47;;;0.30;;
72601;SDS011;60644;55.858;37.390;2023-03-14T00:48:35;4.50;;;0.60;;
72601;SDS011;60644;55.858;37.390;2023-03-14T00:51:02;6.70;;;1.10;;
72601;SDS011;60644;55.858;37.390;2023-03-14T00:53:29;3.83;;;0.50;;
72601;SDS011;60644;55.858;37.390;2023-03-14T00:55:55;4.50;;;0.60;;
72601;SDS011;60644;55.858;37.390;2023-03-14T00:58:21;3.55;;;0.73;;
72601;SDS011;60644;55.858;37.390;2023-03-14T01:00:47;3.40;;;0.90;;
72601;SDS011;60644;55.858;37.390;2023-03-14T01:03:13;3.08;;;0.50;;
72601;SDS011;60644;55.858;37.390;2023-03-14T01:05:40;4.72;;;1.25;;
72601;SDS011;60644;55.858;37.390;2023-03-14T01:08:07;6.05;;;1.20;;
72601;SDS011;60644;55.858;37.390;2023-03-14T01:10:34;5.23;;;1.00;;
72601;SDS011;60644;55.858;37.390;2023-03-14T01:13:04;4.57;;;1.05;;
72601;SDS011;60644;55.858;37.390;2023-03-14T01:15:31;6.35;;;1.10;;
72601;SDS011;60644;55.858;37.390;2023-03-14T01:17:58;5.47;;;1.27;;
72601;SDS011;60644;55.858;37.390;2023-03-14T01:20:24;5.40;;;1.13;;
72601;SDS011;60644;55.858;37.390;2023-03-14T01:22:50;5.47;;;1.10;;
72601;SDS011;60644;55.858;37.390;2023-03-14T01:25:16;3.70;;;1.00;;
72601;SDS011;60644;55.858;37.390;2023-03-14T01:27:43;4.05;;;0.80;;
72601;SDS011;60644;55.858;37.390;2023-03-14T01:30:10;3.75;;;0.70;;
72601;SDS011;60644;55.858;37.390;2023-03-14T01:32:37;5.45;;;1.48;;
72601;SDS011;60644;55.858;37.390;2023-03-14T01:35:03;6.55;;;1.90;;
72601;SDS011;60644;55.858;37.390;2023-03-14T01:37:31;4.40;;;1.13;;
72601;SDS011;60644;55.858;37.390;2023-03-14T01:39:56;6.13;;;1.40;;
72601;SDS011;60644;55.858;37.390;2023-03-14T01:42:22;5.53;;;1.08;;
72601;SDS011;60644;55.858;37.390;2023-03-14T01:44:49;5.70;;;1.10;;
72601;SDS011;60644;55.858;37.390;2023-03-14T01:47:17;8.02;;;1.88;;
72601;SDS011;60644;55.858;37.390;2023-03-14T01:49:52;6.05;;;1.65;;
72601;SDS011;60644;55.858;37.390;2023-03-14T01:52:25;6.80;;;1.92;;
72601;SDS011;60644;55.858;37.390;2023-03-14T01:55:04;6.87;;;1.60;;
72601;SDS011;60644;55.858;37.390;2023-03-14T01:57:51;7.30;;;1.05;;
72601;SDS011;60644;55.858;37.390;2023-03-14T02:00:22;6.53;;;1.58;;
72601;SDS011;60644;55.858;37.390;2023-03-14T02:02:53;5.78;;;1.70;;
72601;SDS011;60644;55.858;37.390;2023-03-14T02:05:25;6.18;;;1.65;;
72601;SDS011;60644;55.858;37.390;2023-03-14T02:07:59;5.83;;;2.30;;
72601;SDS011;60644;55.858;37.390;2023-03-14T02:10:43;6.50;;;1.95;;
72601;SDS011;60644;55.858;37.390;2023-03-14T02:13:11;6.95;;;2.15;;
72601;SDS011;60644;55.858;37.390;2023-03-14T02:15:57;7.10;;;1.60;;
72601;SDS011;60644;55.858;37.390;2023-03-14T02:18:50;6.00;;;1.55;;
72601;SDS011;60644;55.858;37.390;2023-03-14T02:27:21;8.65;;;2.72;;
72601;SDS011;60644;55.858;37.390;2023-03-14T02:32:19;8.95;;;2.88;;
72601;SDS011;60644;55.858;37.390;2023-03-14T02:34:49;11.43;;;2.80;;
72601;SDS011;60644;55.858;37.390;2023-03-14T02:37:19;7.60;;;2.72;;
72601;SDS011;60644;55.858;37.390;2023-03-14T02:39:48;11.10;;;3.20;;
72601;SDS011;60644;55.858;37.390;2023-03-14T02:42:15;6.30;;;2.40;;
72601;SDS011;60644;55.858;37.390;2023-03-14T02:44:55;9.35;;;3.28;;
72601;SDS011;60644;55.858;37.390;2023-03-14T02:48:06;9.27;;;3.03;;
72601;SDS011;60644;55.858;37.390;2023-03-14T02:50:37;8.82;;;2.60;;
72601;SDS011;60644;55.858;37.390;2023-03-14T02:53:04;8.88;;;2.88;;
72601;SDS011;60644;55.858;37.390;2023-03-14T02:55:30;9.85;;;2.83;;
72601;SDS011;60644;55.858;37.390;2023-03-14T02:58:01;8.73;;;2.90;;
72601;SDS011;60644;55.858;37.390;2023-03-14T03:00:27;7.67;;;2.30;;
72601;SDS011;60644;55.858;37.390;2023-03-14T03:02:56;9.60;;;3.28;;
72601;SDS011;60644;55.858;37.390;2023-03-14T03:05:21;10.13;;;3.10;;
72601;SDS011;60644;55.858;37.390;2023-03-14T03:07:47;9.87;;;3.33;;
72601;SDS011;60644;55.858;37.390;2023-03-14T03:10:13;6.45;;;2.25;;
72601;SDS011;60644;55.858;37.390;2023-03-14T03:12:39;9.77;;;3.22;;
72601;SDS011;60644;55.858;37.390;2023-03-14T03:15:06;6.40;;;2.03;;
72601;SDS011;60644;55.858;37.390;2023-03-14T03:17:35;8.63;;;2.40;;
72601;SDS011;60644;55.858;37.390;2023-03-14T03:20:04;9.32;;;3.53;;
72601;SDS011;60644;55.858;37.390;2023-03-14T03:22:31;8.85;;;3.33;;
72601;SDS011;60644;55.858;37.390;2023-03-14T03:24:56;11.35;;;4.10;;
72601;SDS011;60644;55.858;37.390;2023-03-14T03:27:22;9.50;;;3.22;;
72601;SDS011;60644;55.858;37.390;2023-03-14T03:29:48;8.50;;;2.33;;
72601;SDS011;60644;55.858;37.390;2023-03-14T03:32:14;7.93;;;3.27;;
72601;SDS011;60644;55.858;37.390;2023-03-14T03:34:40;9.05;;;3.25;;
72601;SDS011;60644;55.858;37.390;2023-03-14T03:37:06;7.90;;;2.13;;
72601;SDS011;60644;55.858;37.390;2023-03-14T03:39:38;8.00;;;2.78;;
72601;SDS011;60644;55.858;37.390;2023-03-14T03:42:04;9.57;;;3.53;;
72601;SDS011;60644;55.858;37.390;2023-03-14T03:44:29;10.52;;;3.17;;
72601;SDS011;60644;55.858;37.390;2023-03-14T03:46:55;11.93;;;5.93;;
72601;SDS011;60644;55.858;37.390;2023-03-14T03:49:21;9.90;;;3.83;;
72601;SDS011;60644;55.858;37.390;2023-03-14T03:51:47;6.63;;;2.28;;
72601;SDS011;60644;55.858;37.390;2023-03-14T03:54:13;9.60;;;4.22;;
72601;SDS011;60644;55.858;37.390;2023-03-14T03:56:39;8.60;;;3.00;;
72601;SDS011;60644;55.858;37.390;2023-03-14T03:59:05;7.18;;;2.55;;
72601;SDS011;60644;55.858;37.390;2023-03-14T04:01:31;9.95;;;3.90;;
72601;SDS011;60644;55.858;37.390;2023-03-14T04:03:58;9.55;;;3.65;;
72601;SDS011;60644;55.858;37.390;2023-03-14T04:06:25;9.97;;;3.40;;
72601;SDS011;60644;55.858;37.390;2023-03-14T04:08:54;8.43;;;3.47;;
72601;SDS011;60644;55.858;37.390;2023-03-14T04:11:31;14.98;;;5.80;;
72601;SDS011;60644;55.858;37.390;2023-03-14T04:14:15;12.27;;;4.65;;
72601;SDS011;60644;55.858;37.390;2023-03-14T04:16:41;10.23;;;4.53;;
72601;SDS011;60644;55.858;37.390;2023-03-14T04:19:11;11.07;;;5.25;;
72601;SDS011;60644;55.858;37.390;2023-03-14T04:21:37;9.35;;;4.13;;
72601;SDS011;60644;55.858;37.390;2023-03-14T04:24:08;11.48;;;4.00;;
72601;SDS011;60644;55.858;37.390;2023-03-14T04:26:34;11.33;;;5.53;;
72601;SDS011;60644;55.858;37.390;2023-03-14T04:29:01;9.02;;;3.42;;
72601;SDS011;60644;55.858;37.390;2023-03-14T04:31:27;10.48;;;3.85;;
72601;SDS011;60644;55.858;37.390;2023-03-14T04:33:53;9.95;;;4.70;;
72601;SDS011;60644;55.858;37.390;2023-03-14T04:36:27;11.45;;;4.85;;
72601;SDS011;60644;55.858;37.390;2023-03-14T04:38:55;10.97;;;5.00;;
72601;SDS011;60644;55.858;37.390;2023-03-14T04:41:22;14.48;;;5.38;;
72601;SDS011;60644;55.858;37.390;2023-03-14T04:43:48;11.65;;;3.72;;
72601;SDS011;60644;55.858;37.390;2023-03-14T04:46:14;9.80;;;3.85;;
72601;SDS011;60644;55.858;37.390;2023-03-14T04:48:40;10.90;;;4.53;;
72601;SDS011;60644;55.858;37.390;2023-03-14T04:51:07;8.60;;;3.00;;
72601;SDS011;60644;55.858;37.390;2023-03-14T04:53:34;11.52;;;4.03;;
72601;SDS011;60644;55.858;37.390;2023-03-14T04:56:05;13.43;;;4.85;;
72601;SDS011;60644;55.858;37.390;2023-03-14T04:58:37;12.38;;;4.45;;
72601;SDS011;60644;55.858;37.390;2023-03-14T05:01:04;14.23;;;5.03;;
72601;SDS011;60644;55.858;37.390;2023-03-14T05:03:33;11.32;;;4.72;;
72601;SDS011;60644;55.858;37.390;2023-03-14T05:06:19;7.53;;;3.05;;
72601;SDS011;60644;55.858;37.390;2023-03-14T05:09:01;9.25;;;4.00;;
72601;SDS011;60644;55.858;37.390;2023-03-14T05:11:45;10.85;;;3.15;;
72601;SDS011;60644;55.858;37.390;2023-03-14T05:14:29;11.57;;;4.23;;
72601;SDS011;60644;55.858;37.390;2023-03-14T05:17:14;10.23;;;4.20;;
72601;SDS011;60644;55.858;37.390;2023-03-14T05:19:59;8.57;;;3.17;;
72601;SDS011;60644;55.858;37.390;2023-03-14T05:22:34;8.77;;;3.45;;
72601;SDS011;60644;55.858;37.390;2023-03-14T05:25:00;12.43;;;5.72;;
72601;SDS011;60644;55.858;37.390;2023-03-14T05:27:55;11.43;;;5.50;;
72601;SDS011;60644;55.858;37.390;2023-03-14T05:30:38;8.35;;;3.67;;
72601;SDS011;60644;55.858;37.390;2023-03-14T05:33:04;9.68;;;3.88;;
72601;SDS011;60644;55.858;37.390;2023-03-14T05:35:59;9.82;;;2.13;;
72601;SDS011;60644;55.858;37.390;2023-03-14T05:38:25;12.07;;;3.53;;
72601;SDS011;60644;55.858;37.390;2023-03-14T05:41:06;8.93;;;3.20;;
72601;SDS011;60644;55.858;37.390;2023-03-14T05:44:07;8.80;;;3.60;;
72601;SDS011;60644;55.858;37.390;2023-03-14T05:46:44;10.05;;;4.47;;
72601;SDS011;60644;55.858;37.390;2023-03-14T05:49:29;11.27;;;3.90;;
72601;SDS011;60644;55.858;37.390;2023-03-14T05:52:07;7.97;;;3.27;;
72601;SDS011;60644;55.858;37.390;2023-03-14T05:54:35;7.07;;;2.67;;
72601;SDS011;60644;55.858;37.390;2023-03-14T05:57:25;8.63;;;2.95;;
72601;SDS011;60644;55.858;37.390;2023-03-14T06:00:09;9.70;;;2.80;;
72601;SDS011;60644;55.858;37.390;2023-03-14T06:02:40;6.47;;;2.20;;
72601;SDS011;60644;55.858;37.390;2023-03-14T06:05:16;8.07;;;2.73;;
72601;SDS011;60644;55.858;37.390;2023-03-14T06:07:42;7.15;;;2.35;;
72601;SDS011;60644;55.858;37.390;2023-03-14T06:10:09;10.90;;;4.18;;
72601;SDS011;60644;55.858;37.390;2023-03-14T06:12:37;6.97;;;2.45;;
72601;SDS011;60644;55.858;37.390;2023-03-14T06:15:04;9.30;;;3.13;;
72601;SDS011;60644;55.858;37.390;2023-03-14T06:17:31;7.93;;;2.72;;
72601;SDS011;60644;55.858;37.390;2023-03-14T06:20:05;7.55;;;2.33;;
72601;SDS011;60644;55.858;37.390;2023-03-14T06:22:31;6.43;;;2.63;;
72601;SDS011;60644;55.858;37.390;2023-03-14T06:24:57;8.57;;;2.63;;
72601;SDS011;60644;55.858;37.390;2023-03-14T06:27:24;10.17;;;2.83;;
72601;SDS011;60644;55.858;37.390;2023-03-14T06:29:53;6.72;;;2.30;;
72601;SDS011;60644;55.858;37.390;2023-03-14T06:32:19;9.85;;;2.67;;
72601;SDS011;60644;55.858;37.390;2023-03-14T06:34:48;8.35;;;2.35;;
72601;SDS011;60644;55.858;37.390;2023-03-14T06:37:14;9.13;;;3.05;;
72601;SDS011;60644;55.858;37.390;2023-03-14T06:39:40;8.93;;;1.70;;
72601;SDS011;60644;55.858;37.390;2023-03-14T06:42:18;7.40;;;2.28;;
72601;SDS011;60644;55.858;37.390;2023-03-14T06:44:44;7.68;;;2.75;;
72601;SDS011;60644;55.858;37.390;2023-03-14T06:47:10;9.02;;;2.88;;
72601;SDS011;60644;55.858;37.390;2023-03-14T06:49:42;11.57;;;3.90;;
72601;SDS011;60644;55.858;37.390;2023-03-14T06:52:08;5.25;;;1.45;;
72601;SDS011;60644;55.858;37.390;2023-03-14T06:54:34;5.60;;;2.00;;
72601;SDS011;60644;55.858;37.390;2023-03-14T06:57:01;9.85;;;3.20;;
72601;SDS011;60644;55.858;37.390;2023-03-14T06:59:28;8.53;;;2.57;;
72601;SDS011;60644;55.858;37.390;2023-03-14T07:01:54;7.93;;;3.03;;
72601;SDS011;60644;55.858;37.390;2023-03-14T07:04:20;10.13;;;2.30;;
72601;SDS011;60644;55.858;37.390;2023-03-14T07:06:47;9.13;;;2.40;;
72601;SDS011;60644;55.858;37.390;2023-03-14T07:09:13;7.47;;;2.80;;
72601;SDS011;60644;55.858;37.390;2023-03-14T07:11:48;8.88;;;2.63;;
72601;SDS011;60644;55.858;37.390;2023-03-14T07:14:15;9.27;;;3.13;;
72601;SDS011;60644;55.858;37.390;2023-03-14T07:16:41;7.23;;;2.30;;
72601;SDS011;60644;55.858;37.390;2023-03-14T07:19:08;7.72;;;3.08;;
72601;SDS011;60644;55.858;37.390;2023-03-14T07:21:36;10.10;;;2.60;;
72601;SDS011;60644;55.858;37.390;2023-03-14T07:24:07;11.77;;;3.20;;
72601;SDS011;60644;55.858;37.390;2023-03-14T07:26:33;8.07;;;2.97;;
72601;SDS011;60644;55.858;37.390;2023-03-14T07:28:59;7.35;;;2.28;;
72601;SDS011;60644;55.858;37.390;2023-03-14T07:31:25;6.88;;;2.75;;
72601;SDS011;60644;55.858;37.390;2023-03-14T07:33:52;6.50;;;2.13;;
72601;SDS011;60644;55.858;37.390;2023-03-14T07:36:20;9.70;;;2.80;;
72601;SDS011;60644;55.858;37.390;2023-03-14T07:38:46;10.77;;;2.58;;
72601;SDS011;60644;55.858;37.390;2023-03-14T07:41:21;7.85;;;2.53;;
72601;SDS011;60644;55.858;37.390;2023-03-14T07:44:08;12.48;;;2.55;;
72601;SDS011;60644;55.858;37.390;2023-03-14T07:46:34;10.10;;;1.90;;
72601;SDS011;60644;55.858;37.390;2023-03-14T07:49:00;6.87;;;1.50;;
72601;SDS011;60644;55.858;37.390;2023-03-14T07:51:26;7.32;;;1.95;;
72601;SDS011;60644;55.858;37.390;2023-03-14T07:53:51;7.40;;;2.40;;
72601;SDS011;60644;55.858;37.390;2023-03-14T07:56:17;8.05;;;2.20;;
72601;SDS011;60644;55.858;37.390;2023-03-14T07:58:43;9.77;;;2.65;;
72601;SDS011;60644;55.858;37.390;2023-03-14T08:01:09;9.33;;;1.67;;
72601;SDS011;60644;55.858;37.390;2023-03-14T08:03:35;8.60;;;2.85;;
72601;SDS011;60644;55.858;37.390;2023-03-14T08:06:01;7.60;;;2.30;;
72601;SDS011;60644;55.858;37.390;2023-03-14T08:08:27;6.53;;;2.10;;
72601;SDS011;60644;55.858;37.390;2023-03-14T08:10:53;6.50;;;2.22;;
72601;SDS011;60644;55.858;37.390;2023-03-14T08:13:19;8.30;;;2.03;;
72601;SDS011;60644;55.858;37.390;2023-03-14T08:15:47;6.93;;;2.77;;
72601;SDS011;60644;55.858;37.390;2023-03-14T08:18:14;7.68;;;3.10;;
72601;SDS011;60644;55.858;37.390;2023-03-14T08:20:40;8.60;;;2.60;;
72601;SDS011;60644;55.858;37.390;2023-03-14T08:23:06;7.93;;;2.73;;
72601;SDS011;60644;55.858;37.390;2023-03-14T08:25:31;7.90;;;2.20;;
72601;SDS011;60644;55.858;37.390;2023-03-14T08:27:57;6.07;;;2.03;;
72601;SDS011;60644;55.858;37.390;2023-03-14T08:30:23;7.30;;;2.78;;
72601;SDS011;60644;55.858;37.390;2023-03-14T08:32:49;9.82;;;3.17;;
72601;SDS011;60644;55.858;37.390;2023-03-14T08:35:15;7.03;;;2.27;;
72601;SDS011;60644;55.858;37.390;2023-03-14T08:37:41;9.68;;;2.20;;
72601;SDS011;60644;55.858;37.390;2023-03-14T08:40:07;9.15;;;2.33;;
72601;SDS011;60644;55.858;37.390;2023-03-14T08:42:38;7.83;;;2.10;;
72601;SDS011;60644;55.858;37.390;2023-03-14T08:45:05;5.38;;;1.77;;
72601;SDS011;60644;55.858;37.390;2023-03-14T08:47:33;6.55;;;2.75;;
72601;SDS011;60644;55.858;37.390;2023-03-14T08:50:17;6.30;;;2.08;;
72601;SDS011;60644;55.858;37.390;2023-03-14T08:52:43;6.43;;;2.20;;
72601;SDS011;60644;55.858;37.390;2023-03-14T08:55:28;6.47;;;1.80;;
72601;SDS011;60644;55.858;37.390;2023-03-14T08:57:54;5.95;;;1.77;;
72601;SDS011;60644;55.858;37.390;2023-03-14T09:00:20;10.60;;;2.47;;
72601;SDS011;60644;55.858;37.390;2023-03-14T09:02:46;5.73;;;1.53;;
72601;SDS011;60644;55.858;37.390;2023-03-14T09:05:12;8.30;;;1.90;;
72601;SDS011;60644;55.858;37.390;2023-03-14T09:07:39;6.50;;;2.42;;
72601;SDS011;60644;55.858;37.390;2023-03-14T09:10:06;6.32;;;1.90;;
72601;SDS011;60644;55.858;37.390;2023-03-14T09:12:33;7.05;;;2.20;;
72601;SDS011;60644;55.858;37.390;2023-03-14T09:14:59;6.03;;;2.27;;
72601;SDS011;60644;55.858;37.390;2023-03-14T09:17:25;7.30;;;2.45;;
72601;SDS011;60644;55.858;37.390;2023-03-14T09:19:51;5.40;;;1.55;;
72601;SDS011;60644;55.858;37.390;2023-03-14T09:22:17;7.68;;;1.77;;
72601;SDS011;60644;55.858;37.390;2023-03-14T09:24:43;7.03;;;1.70;;
72601;SDS011;60644;55.858;37.390;2023-03-14T09:27:09;6.70;;;2.15;;
72601;SDS011;60644;55.858;37.390;2023-03-14T09:29:35;8.10;;;2.47;;
72601;SDS011;60644;55.858;37.390;2023-03-14T09:32:01;5.53;;;1.77;;
72601;SDS011;60644;55.858;37.390;2023-03-14T09:34:27;7.60;;;2.38;;
72601;SDS011;60644;55.858;37.390;2023-03-14T09:36:53;7.55;;;2.42;;
72601;SDS011;60644;55.858;37.390;2023-03-14T09:39:19;7.97;;;1.80;;
72601;SDS011;60644;55.858;37.390;2023-03-14T09:41:48;6.18;;;2.20;;
72601;SDS011;60644;55.858;37.390;2023-03-14T09:46:54;6.80;;;2.20;;
72601;SDS011;60644;55.858;37.390;2023-03-14T09:49:26;8.60;;;3.00;;
72601;SDS011;60644;55.858;37.390;2023-03-14T09:51:54;9.30;;;3.25;;
72601;SDS011;60644;55.858;37.390;2023-03-14T09:57:09;6.78;;;2.58;;
72601;SDS011;60644;55.858;37.390;2023-03-14T09:59:38;7.43;;;2.33;;
72601;SDS011;60644;55.858;37.390;2023-03-14T10:02:20;10.67;;;2.33;;
72601;SDS011;60644;55.858;37.390;2023-03-14T10:04:48;7.63;;;2.28;;
72601;SDS011;60644;55.858;37.390;2023-03-14T10:07:25;6.75;;;1.92;;
72601;SDS011;60644;55.858;37.390;2023-03-14T10:09:54;7.35;;;1.92;;
72601;SDS011;60644;55.858;37.390;2023-03-14T10:12:31;6.72;;;2.45;;
72601;SDS011;60644;55.858;37.390;2023-03-14T10:17:42;5.85;;;1.77;;
72601;SDS011;60644;55.858;37.390;2023-03-14T10:25:42;6.18;;;2.00;;
72601;SDS011;60644;55.858;37.390;2023-03-14T10:28:23;8.63;;;2.73;;
72601;SDS011;60644;55.858;37.390;2023-03-14T10:30:49;8.38;;;2.70;;
72601;SDS011;60644;55.858;37.390;2023-03-14T10:35:44;8.20;;;2.30;;
72601;SDS011;60644;55.858;37.390;2023-03-14T10:38:15;7.53;;;2.37;;
72601;SDS011;60644;55.858;37.390;2023-03-14T10:40:46;8.15;;;3.05;;
72601;SDS011;60644;55.858;37.390;2023-03-14T10:43:18;6.53;;;2.45;;
72601;SDS011;60644;55.858;37.390;2023-03-14T10:46:01;6.72;;;1.90;;
72601;SDS011;60644;55.858;37.390;2023-03-14T10:49:06;6.35;;;2.28;;
72601;SDS011;60644;55.858;37.390;2023-03-14T10:51:32;8.83;;;2.73;;
72601;SDS011;60644;55.858;37.390;2023-03-14T10:56:33;10.40;;;2.50;;
72601;SDS011;60644;55.858;37.390;2023-03-14T10:59:01;6.53;;;1.83;;
72601;SDS011;60644;55.858;37.390;2023-03-14T11:02:13;8.27;;;2.20;;
72601;SDS011;60644;55.858;37.390;2023-03-14T11:09:32;5.37;;;1.67;;
72601;SDS011;60644;55.858;37.390;2023-03-14T11:12:04;5.63;;;1.65;;
72601;SDS011;60644;55.858;37.390;2023-03-14T11:14:59;6.47;;;1.75;;
72601;SDS011;60644;55.858;37.390;2023-03-14T11:23:25;10.15;;;2.65;;
72601;SDS011;60644;55.858;37.390;2023-03-14T11:26:04;8.50;;;2.20;;
72601;SDS011;60644;55.858;37.390;2023-03-14T11:28:51;10.05;;;2.40;;
72601;SDS011;60644;55.858;37.390;2023-03-14T11:31:29;5.78;;;2.20;;
72601;SDS011;60644;55.858;37.390;2023-03-14T11:36:51;7.47;;;1.60;;
72601;SDS011;60644;55.858;37.390;2023-03-14T11:39:19;6.68;;;1.88;;
72601;SDS011;60644;55.858;37.390;2023-03-14T11:41:47;8.15;;;1.90;;
72601;SDS011;60644;55.858;37.390;2023-03-14T11:44:20;7.43;;;1.98;;
72601;SDS011;60644;55.858;37.390;2023-03-14T11:55:05;6.53;;;2.10;;
72601;SDS011;60644;55.858;37.390;2023-03-14T11:57:39;5.80;;;1.90;;
72601;SDS011;60644;55.858;37.390;2023-03-14T12:02:47;9.40;;;2.30;;
72601;SDS011;60644;55.858;37.390;2023-03-14T12:13:58;5.95;;;2.00;;
72601;SDS011;60644;55.858;37.390;2023-03-14T12:16:27;6.35;;;1.85;;
72601;SDS011;60644;55.858;37.390;2023-03-14T12:18:57;7.97;;;2.80;;
72601;SDS011;60644;55.858;37.390;2023-03-14T12:21:44;9.00;;;2.20;;
72601;SDS011;60644;55.858;37.390;2023-03-14T12:24:30;7.40;;;2.30;;
72601;SDS011;60644;55.858;37.390;2023-03-14T12:27:01;5.80;;;1.90;;
72601;SDS011;60644;55.858;37.390;2023-03-14T12:29:28;9.00;;;2.40;;
72601;SDS011;60644;55.858;37.390;2023-03-14T12:34:30;6.68;;;1.48;;
72601;SDS011;60644;55.858;37.390;2023-03-14T12:43:10;7.27;;;1.90;;
72601;SDS011;60644;55.858;37.390;2023-03-14T12:45:27;6.65;;;2.30;;
72601;SDS011;60644;55.858;37.390;2023-03-14T12:48:01;5.97;;;2.67;;
72601;SDS011;60644;55.858;37.390;2023-03-14T12:51:00;6.20;;;1.95;;
72601;SDS011;60644;55.858;37.390;2023-03-14T13:01:27;6.60;;;1.75;;
72601;SDS011;60644;55.858;37.390;2023-03-14T13:09:46;10.05;;;2.40;;
72601;SDS011;60644;55.858;37.390;2023-03-14T13:12:17;7.10;;;1.95;;
72601;SDS011;60644;55.858;37.390;2023-03-14T13:14:48;6.23;;;1.97;;
72601;SDS011;60644;55.858;37.390;2023-03-14T13:17:24;7.75;;;2.40;;
72601;SDS011;60644;55.858;37.390;2023-03-14T13:19:53;6.90;;;1.90;;
72601;SDS011;60644;55.858;37.390;2023-03-14T13:22:27;5.45;;;1.58;;
72601;SDS011;60644;55.858;37.390;2023-03-14T13:25:03;7.53;;;1.70;;
72601;SDS011;60644;55.858;37.390;2023-03-14T13:27:32;7.47;;;2.20;;
72601;SDS011;60644;55.858;37.390;2023-03-14T13:32:52;6.70;;;2.17;;
72601;SDS011;60644;55.858;37.390;2023-03-14T13:35:20;5.32;;;1.92;;
72601;SDS011;60644;55.858;37.390;2023-03-14T13:37:53;6.65;;;2.38;;
72601;SDS011;60644;55.858;37.390;2023-03-14T13:40:33;6.23;;;2.20;;
72601;SDS011;60644;55.858;37.390;2023-03-14T13:45:44;6.68;;;1.73;;
72601;SDS011;60644;55.858;37.390;2023-03-14T13:48:13;8.25;;;1.38;;
72601;SDS011;60644;55.858;37.390;2023-03-14T13:50:44;6.93;;;1.98;;
72601;SDS011;60644;55.858;37.390;2023-03-14T13:53:21;7.03;;;1.90;;
72601;SDS011;60644;55.858;37.390;2023-03-14T13:55:48;6.25;;;1.80;;
72601;SDS011;60644;55.858;37.390;2023-03-14T13:58:22;6.03;;;2.15;;
72601;SDS011;60644;55.858;37.390;2023-03-14T14:03:23;5.35;;;1.67;;
72601;SDS011;60644;55.858;37.390;2023-03-14T14:05:49;6.17;;;2.00;;
72601;SDS011;60644;55.858;37.390;2023-03-14T14:08:15;6.35;;;1.80;;
72601;SDS011;60644;55.858;37.390;2023-03-14T14:10:41;6.43;;;1.83;;
72601;SDS011;60644;55.858;37.390;2023-03-14T14:13:11;6.97;;;2.08;;
72601;SDS011;60644;55.858;37.390;2023-03-14T14:15:41;6.63;;;1.60;;
72601;SDS011;60644;55.858;37.390;2023-03-14T14:18:12;7.40;;;2.00;;
72601;SDS011;60644;55.858;37.390;2023-03-14T14:20:43;5.15;;;1.55;;
72601;SDS011;60644;55.858;37.390;2023-03-14T14:23:14;7.10;;;1.92;;
72601;SDS011;60644;55.858;37.390;2023-03-14T14:25:44;7.22;;;1.90;;
72601;SDS011;60644;55.858;37.390;2023-03-14T14:28:15;6.70;;;1.87;;
72601;SDS011;60644;55.858;37.390;2023-03-14T14:30:46;5.10;;;1.75;;
72601;SDS011;60644;55.858;37.390;2023-03-14T14:33:24;8.43;;;2.08;;
72601;SDS011;60644;55.858;37.390;2023-03-14T14:35:57;7.07;;;1.77;;
72601;SDS011;60644;55.858;37.390;2023-03-14T14:38:25;5.20;;;1.77;;
72601;SDS011;60644;55.858;37.390;2023-03-14T14:40:58;7.85;;;1.73;;
72601;SDS011;60644;55.858;37.390;2023-03-14T14:43:28;5.03;;;1.40;;
72601;SDS011;60644;55.858;37.390;2023-03-14T14:45:59;8.57;;;1.25;;
72601;SDS011;60644;55.858;37.390;2023-03-14T14:48:26;6.32;;;1.58;;
72601;SDS011;60644;55.858;37.390;2023-03-14T14:56:15;6.60;;;1.67;;
72601;SDS011;60644;55.858;37.390;2023-03-14T14:58:48;6.50;;;1.70;;
72601;SDS011;60644;55.858;37.390;2023-03-14T15:01:34;5.68;;;1.63;;
72601;SDS011;60644;55.858;37.390;2023-03-14T15:04:11;7.70;;;2.00;;
72601;SDS011;60644;55.858;37.390;2023-03-14T15:06:39;7.20;;;2.00;;
72601;SDS011;60644;55.858;37.390;2023-03-14T15:09:08;11.00;;;2.00;;
72601;SDS011;60644;55.858;37.390;2023-03-14T15:11:35;5.90;;;2.00;;
72601;SDS011;60644;55.858;37.390;2023-03-14T15:14:01;6.65;;;1.88;;
72601;SDS011;60644;55.858;37.390;2023-03-14T15:16:29;6.33;;;2.10;;
72601;SDS011;60644;55.858;37.390;2023-03-14T15:18:57;4.07;;;1.20;;
72601;SDS011;60644;55.858;37.390;2023-03-14T15:21:26;4.38;;;1.27;;
72601;SDS011;60644;55.858;37.390;2023-03-14T15:23:52;7.22;;;1.50;;
72601;SDS011;60644;55.858;37.390;2023-03-14T15:26:19;7.03;;;1.58;;
72601;SDS011;60644;55.858;37.390;2023-03-14T15:28:47;6.57;;;1.77;;
72601;SDS011;60644;55.858;37.390;2023-03-14T15:31:14;6.38;;;2.08;;
72601;SDS011;60644;55.858;37.390;2023-03-14T15:33:43;7.07;;;2.08;;
72601;SDS011;60644;55.858;37.390;2023-03-14T15:38:51;7.72;;;1.60;;
72601;SDS011;60644;55.858;37.390;2023-03-14T15:41:18;5.80;;;1.60;;
72601;SDS011;60644;55.858;37.390;2023-03-14T15:43:44;6.38;;;1.73;;
72601;SDS011;60644;55.858;37.390;2023-03-14T15:46:10;5.85;;;1.45;;
72601;SDS011;60644;55.858;37.390;2023-03-14T15:48:37;5.70;;;1.60;;
72601;SDS011;60644;55.858;37.390;2023-03-14T15:51:03;5.47;;;1.70;;
72601;SDS011;60644;55.858;37.390;2023-03-14T15:53:30;8.20;;;1.90;;
72601;SDS011;60644;55.858;37.390;2023-03-14T15:55:55;5.22;;;1.63;;
72601;SDS011;60644;55.858;37.390;2023-03-14T15:58:21;5.70;;;1.52;;
72601;SDS011;60644;55.858;37.390;2023-03-14T16:00:47;8.27;;;1.93;;
72601;SDS011;60644;55.858;37.390;2023-03-14T16:03:14;6.00;;;1.60;;
72601;SDS011;60644;55.858;37.390;2023-03-14T16:05:40;5.97;;;1.92;;
72601;SDS011;60644;55.858;37.390;2023-03-14T16:08:06;7.47;;;1.87;;
72601;SDS011;60644;55.858;37.390;2023-03-14T16:10:32;7.10;;;2.17;;
72601;SDS011;60644;55.858;37.390;2023-03-14T16:12:58;4.95;;;1.38;;
72601;SDS011;60644;55.858;37.390;2023-03-14T16:15:24;5.88;;;1.83;;
72601;SDS011;60644;55.858;37.390;2023-03-14T16:17:53;4.93;;;1.50;;
72601;SDS011;60644;55.858;37.390;2023-03-14T16:20:19;7.05;;;1.80;;
72601;SDS011;60644;55.858;37.390;2023-03-14T16:22:45;7.25;;;1.83;;
72601;SDS011;60644;55.858;37.390;2023-03-14T16:25:11;7.22;;;1.60;;
72601;SDS011;60644;55.858;37.390;2023-03-14T16:27:38;7.57;;;1.83;;
72601;SDS011;60644;55.858;37.390;2023-03-14T16:30:04;7.53;;;1.83;;